Time;durP1;ratioP1;P1;durP2;ratioP2;P2;SDS_P1;SDS_P2;PMS_P1;PMS_P2;Temp;Humidity;BMP_temperature;BMP_pressure;BME280_temperature;BME280_humidity;BME280_pressure;Samples;Min_cycle;Max_cycle;Signal;HPM_P1;HPM_P2
2023/12/07 00:00:47;;;;;;;;;;;;;;;;;;5096533;28;19963;-72
2023/12/07 00:03:15;;;;;;;;;;;;;;;;;;5078667;28;19912;-72
2023/12/07 00:05:41;;;;;;;;;;;;;;;;;;5096967;28;19908;-72
2023/12/07 00:08:07;;;;;;;;;;;;;;;;;;5078139;28;20215;-72
2023/12/07 00:10:33;;;;;;;;;;;;;;;;;;5096525;28;19920;-72
2023/12/07 00:12:59;;;;;;;;;;;;;;;;;;5096589;28;19943;-72
2023/12/07 00:15:24;;;;;;;;;;;;;;;;;;5077913;28;19915;-72
2023/12/07 00:17:50;;;;;;;;;;;;;;;;;;5096569;28;19908;-72
2023/12/07 00:20:16;;;;;;;;;;;;;;;;;;5096420;28;19997;-72
2023/12/07 00:22:42;;;;;;;;;;;;;;;;;;5096006;28;19919;-73
2023/12/07 00:25:08;;;;;;;;;;;;;;;;;;5078204;28;19990;-74
2023/12/07 00:27:34;;;;;;;;;;;;;;;;;;5096189;28;19995;-72
2023/12/07 00:30:00;;;;;;;;;;;;;;;;;;5095813;28;19920;-73
2023/12/07 00:32:27;;;;;;;;;;;;;;;;;;5096329;28;19908;-73
2023/12/07 00:34:53;;;;;;;;;;;;;;;;;;5074815;28;19966;-73
2023/12/07 00:37:19;;;;;;;;;;;;;;;;;;5095109;28;19908;-72
2023/12/07 00:39:45;;;;;;;;;;;;;;;;;;5095838;28;20257;-72
2023/12/07 00:42:11;;;;;;;;;;;;;;;;;;5095741;28;19916;-72
2023/12/07 00:44:37;;;;;;;;;;;;;;;;;;5095316;28;20390;-72
2023/12/07 00:47:03;;;;;;;;;;;;;;;;;;5095806;28;20398;-72
2023/12/07 00:49:29;;;;;;;;;;;;;;;;;;5077462;28;20364;-71
2023/12/07 00:51:55;;;;;;;;;;;;;;;;;;5095182;28;19908;-71
2023/12/07 00:54:21;;;;;;;;;;;;;;;;;;5095860;28;19915;-72
2023/12/07 00:56:47;;;;;;;;;;;;;;;;;;5095141;28;19958;-72
2023/12/07 00:59:13;;;;;;;;;;;;;;;;;;5095199;28;19965;-73
2023/12/07 01:01:39;;;;;;;;;;;;;;;;;;5077379;28;19911;-72
2023/12/07 01:04:05;;;;;;;;;;;;;;;;;;5094705;28;19953;-73
2023/12/07 01:06:31;;;;;;;;;;;;;;;;;;5077240;28;20265;-72
2023/12/07 01:08:57;;;;;;;;;;;;;;;;;;5095239;28;19908;-72
2023/12/07 01:11:23;;;;;;;;;;;;;;;;;;5095103;28;20413;-72
2023/12/07 01:13:49;;;;;;;;;;;;;;;;;;5095210;28;20353;-72
2023/12/07 01:16:15;;;;;;;;;;;;;;;;;;5095042;28;20412;-71
2023/12/07 01:18:41;;;;;;;;;;;;;;;;;;5094688;28;19953;-71
2023/12/07 01:21:07;;;;;;;;;;;;;;;;;;5095004;28;19916;-72
2023/12/07 01:23:33;;;;;;;;;;;;;;;;;;5095148;28;19919;-72
2023/12/07 01:26:02;;;;;;;;;;;;;;;;;;5094296;28;19996;-72
2023/12/07 01:28:28;;;;;;;;;;;;;;;;;;5094777;28;19959;-72
2023/12/07 01:30:53;;;;;;;;;;;;;;;;;;5094958;28;19966;-72
2023/12/07 01:33:19;;;;;;;;;;;;;;;;;;5094603;28;19926;-72
2023/12/07 01:35:45;;;;;;;;;;;;;;;;;;5094929;28;19909;-72
2023/12/07 01:38:12;;;;;;;;;;;;;;;;;;5094625;28;19915;-72
2023/12/07 01:40:38;;;;;;;;;;;;;;;;;;5094203;28;19908;-72
2023/12/07 01:43:04;;;;;;;;;;;;;;;;;;5094794;28;19908;-72
2023/12/07 01:45:30;;;;;;;;;;;;;;;;;;5076325;28;19955;-71
2023/12/07 01:47:58;;;;;;;;;;;;;;;;;;5094438;28;19908;-72
2023/12/07 01:50:24;;;;;;;;;;;;;;;;;;5094541;28;19916;-72
2023/12/07 01:52:50;;;;;;;;;;;;;;;;;;5094522;28;19992;-72
2023/12/07 01:55:16;;;;;;;;;;;;;;;;;;5094132;28;20452;-72
2023/12/07 01:57:42;;;;;;;;;;;;;;;;;;5094642;28;19923;-72
2023/12/07 02:00:09;;;;;;;;;;;;;;;;;;5094301;28;19908;-72
2023/12/07 02:02:35;;;;;;;;;;;;;;;;;;5094107;28;19961;-72
2023/12/07 02:05:01;;;;;;;;;;;;;;;;;;5076002;28;19908;-72
2023/12/07 02:07:26;;;;;;;;;;;;;;;;;;5093150;28;20002;-73
2023/12/07 02:09:52;;;;;;;;;;;;;;;;;;5094117;28;19970;-72
2023/12/07 02:12:19;;;;;;;;;;;;;;;;;;5094097;28;19908;-73
2023/12/07 02:14:45;;;;;;;;;;;;;;;;;;5093825;28;19997;-72
2023/12/07 02:17:11;;;;;;;;;;;;;;;;;;5094016;28;20417;-72
2023/12/07 02:19:38;;;;;;;;;;;;;;;;;;5094153;28;19912;-72
2023/12/07 02:22:04;;;;;;;;;;;;;;;;;;5093536;28;19908;-73
2023/12/07 02:24:30;;;;;;;;;;;;;;;;;;5093745;28;19977;-73
2023/12/07 02:26:58;;;;;;;;;;;;;;;;;;5094212;28;19908;-72
2023/12/07 02:29:24;;;;;;;;;;;;;;;;;;5093267;28;20307;-73
2023/12/07 02:31:50;;;;;;;;;;;;;;;;;;5093929;28;19912;-73
2023/12/07 02:34:16;;;;;;;;;;;;;;;;;;5075647;28;20030;-73
2023/12/07 02:36:42;;;;;;;;;;;;;;;;;;5093404;28;19916;-73
2023/12/07 02:39:09;;;;;;;;;;;;;;;;;;5093493;28;19908;-73
2023/12/07 02:41:35;;;;;;;;;;;;;;;;;;5073771;28;19915;-73
2023/12/07 02:44:02;;;;;;;;;;;;;;;;;;5091870;28;19908;-73
2023/12/07 02:46:28;;;;;;;;;;;;;;;;;;5093838;28;19908;-73
2023/12/07 02:48:54;;;;;;;;;;;;;;;;;;5093800;28;19908;-72
2023/12/07 02:51:20;;;;;;;;;;;;;;;;;;5093358;28;19916;-73
2023/12/07 02:53:46;;;;;;;;;;;;;;;;;;5093824;28;20375;-72
2023/12/07 02:56:11;;;;;;;;;;;;;;;;;;5093809;28;19908;-72
2023/12/07 02:58:37;;;;;;;;;;;;;;;;;;5093359;28;19915;-72
2023/12/07 03:01:04;;;;;;;;;;;;;;;;;;5093682;28;19912;-73
2023/12/07 03:03:30;;;;;;;;;;;;;;;;;;5093904;28;19970;-73
2023/12/07 03:05:56;;;;;;;;;;;;;;;;;;5075228;28;19908;-73
2023/12/07 03:08:22;;;;;;;;;;;;;;;;;;5093704;28;19912;-73
2023/12/07 03:10:48;;;;;;;;;;;;;;;;;;5093145;28;20014;-72
2023/12/07 03:13:14;;;;;;;;;;;;;;;;;;5093600;28;19915;-72
2023/12/07 03:15:40;;;;;;;;;;;;;;;;;;5093949;28;20352;-72
2023/12/07 03:18:06;;;;;;;;;;;;;;;;;;5093755;28;19912;-72
2023/12/07 03:20:32;;;;;;;;;;;;;;;;;;5097590;28;19931;-72
2023/12/07 03:22:57;;;;;;;;;;;;;;;;;;5079446;28;19908;-72
2023/12/07 03:25:23;;;;;;;;;;;;;;;;;;5097262;28;19908;-72
2023/12/07 03:27:49;;;;;;;;;;;;;;;;;;5097479;28;19920;-72
2023/12/07 03:30:15;;;;;;;;;;;;;;;;;;5097579;28;20007;-72
2023/12/07 03:32:41;;;;;;;;;;;;;;;;;;5097021;28;19916;-73
2023/12/07 03:35:07;;;;;;;;;;;;;;;;;;5097729;28;20005;-73
2023/12/07 03:37:33;;;;;;;;;;;;;;;;;;5097411;28;19951;-72
2023/12/07 03:39:59;;;;;;;;;;;;;;;;;;5096898;28;19915;-73
2023/12/07 03:42:25;;;;;;;;;;;;;;;;;;5097440;28;19923;-73
2023/12/07 03:44:51;;;;;;;;;;;;;;;;;;5097479;28;19908;-72
2023/12/07 03:47:17;;;;;;;;;;;;;;;;;;5096698;28;19908;-73
2023/12/07 03:49:43;;;;;;;;;;;;;;;;;;5097015;28;19916;-72
2023/12/07 03:52:09;;;;;;;;;;;;;;;;;;5078828;28;19912;-73
2023/12/07 03:54:35;;;;;;;;;;;;;;;;;;5096580;28;19908;-71
2023/12/07 03:57:01;;;;;;;;;;;;;;;;;;5097136;28;19948;-71
2023/12/07 03:59:27;;;;;;;;;;;;;;;;;;5096869;28;20279;-72
2023/12/07 04:01:52;;;;;;;;;;;;;;;;;;5096352;28;20288;-72
2023/12/07 04:04:18;;;;;;;;;;;;;;;;;;5078664;28;20264;-72
2023/12/07 04:06:44;;;;;;;;;;;;;;;;;;5096780;28;20410;-72
2023/12/07 04:09:10;;;;;;;;;;;;;;;;;;5096314;28;20364;-72
2023/12/07 04:11:36;;;;;;;;;;;;;;;;;;5096622;28;19916;-72
2023/12/07 04:14:02;;;;;;;;;;;;;;;;;;5096276;28;19912;-72
2023/12/07 04:16:28;;;;;;;;;;;;;;;;;;5096599;28;19908;-72
2023/12/07 04:18:54;;;;;;;;;;;;;;;;;;5096713;28;19958;-72
2023/12/07 04:21:20;;;;;;;;;;;;;;;;;;5077938;28;19938;-73
2023/12/07 04:23:46;;;;;;;;;;;;;;;;;;5096440;28;19908;-72
2023/12/07 04:26:12;;;;;;;;;;;;;;;;;;5096469;28;19995;-72
2023/12/07 04:28:38;;;;;;;;;;;;;;;;;;5074455;28;19927;-73
2023/12/07 04:31:04;;;;;;;;;;;;;;;;;;5075325;28;20420;-73
2023/12/07 04:33:29;;;;;;;;;;;;;;;;;;5076084;28;19916;-72
2023/12/07 04:35:55;;;;;;;;;;;;;;;;;;5075601;28;19909;-72
2023/12/07 04:38:22;;;;;;;;;;;;;;;;;;5075911;28;19963;-73
2023/12/07 04:40:48;;;;;;;;;;;;;;;;;;5074583;28;19962;-73
2023/12/07 04:43:14;;;;;;;;;;;;;;;;;;5074175;28;20038;-73
2023/12/07 04:45:40;;;;;;;;;;;;;;;;;;5075803;28;19974;-73
2023/12/07 04:48:06;;;;;;;;;;;;;;;;;;5074509;28;19908;-72
2023/12/07 04:50:32;;;;;;;;;;;;;;;;;;5074039;28;20088;-72
2023/12/07 04:52:58;;;;;;;;;;;;;;;;;;5074327;28;19981;-71
2023/12/07 04:55:24;;;;;;;;;;;;;;;;;;5075557;28;19915;-72
2023/12/07 04:57:49;;;;;;;;;;;;;;;;;;5075266;28;19947;-72
2023/12/07 05:00:15;;;;;;;;;;;;;;;;;;5075538;28;19908;-72
2023/12/07 05:02:42;;;;;;;;;;;;;;;;;;5074201;28;20468;-73
2023/12/07 05:05:08;;;;;;;;;;;;;;;;;;5075025;28;19955;-72
2023/12/07 05:07:34;;;;;;;;;;;;;;;;;;5075509;28;19935;-72
2023/12/07 05:10:00;;;;;;;;;;;;;;;;;;5075434;28;19916;-72
2023/12/07 05:12:26;;;;;;;;;;;;;;;;;;5074862;28;20015;-72
2023/12/07 05:14:52;;;;;;;;;;;;;;;;;;5075558;28;19920;-72
2023/12/07 05:17:18;;;;;;;;;;;;;;;;;;5074730;28;19953;-72
2023/12/07 05:19:45;;;;;;;;;;;;;;;;;;5075263;28;19908;-72
2023/12/07 05:22:11;;;;;;;;;;;;;;;;;;5075110;28;19909;-72
2023/12/07 05:24:37;;;;;;;;;;;;;;;;;;5074759;28;20505;-72
2023/12/07 05:27:03;;;;;;;;;;;;;;;;;;5075048;28;19917;-72
2023/12/07 05:29:29;;;;;;;;;;;;;;;;;;5073457;28;19956;-72
2023/12/07 05:31:55;;;;;;;;;;;;;;;;;;5074519;28;20433;-73
2023/12/07 05:34:21;;;;;;;;;;;;;;;;;;5073876;28;19938;-72
2023/12/07 05:36:47;;;;;;;;;;;;;;;;;;5074881;28;20388;-72
2023/12/07 05:39:13;;;;;;;;;;;;;;;;;;5073022;28;19908;-73
2023/12/07 05:41:39;;;;;;;;;;;;;;;;;;5074566;28;20360;-72
2023/12/07 05:44:05;;;;;;;;;;;;;;;;;;5074630;28;20325;-72
2023/12/07 05:46:32;;;;;;;;;;;;;;;;;;5074109;28;19962;-72
2023/12/07 05:48:58;;;;;;;;;;;;;;;;;;5074660;28;19991;-72
2023/12/07 05:51:24;;;;;;;;;;;;;;;;;;5074390;28;20015;-72
2023/12/07 05:53:50;;;;;;;;;;;;;;;;;;5074431;28;19991;-72
2023/12/07 05:56:16;;;;;;;;;;;;;;;;;;5074419;28;19951;-71
2023/12/07 05:58:42;;;;;;;;;;;;;;;;;;5074401;28;19959;-71
2023/12/07 06:01:08;;;;;;;;;;;;;;;;;;5073851;28;19909;-71
2023/12/07 06:03:35;;;;;;;;;;;;;;;;;;5074496;28;19997;-72
2023/12/07 06:06:01;;;;;;;;;;;;;;;;;;5074235;28;19909;-71
2023/12/07 06:08:26;;;;;;;;;;;;;;;;;;5072592;28;19915;-71
2023/12/07 06:10:52;;;;;;;;;;;;;;;;;;5074043;28;20391;-71
2023/12/07 06:13:18;;;;;;;;;;;;;;;;;;5074406;28;20372;-71
2023/12/07 06:15:44;;;;;;;;;;;;;;;;;;5073668;28;20400;-71
2023/12/07 06:18:10;;;;;;;;;;;;;;;;;;5074037;28;20364;-71
2023/12/07 06:20:36;;;;;;;;;;;;;;;;;;5073449;28;20382;-72
2023/12/07 06:23:02;;;;;;;;;;;;;;;;;;5073656;28;19913;-72
2023/12/07 06:25:28;;;;;;;;;;;;;;;;;;5072313;28;19953;-72
2023/12/07 06:27:56;;;;;;;;;;;;;;;;;;5075641;28;20201;-72
2023/12/07 06:30:22;;;;;;;;;;;;;;;;;;5092401;28;19959;-71
2023/12/07 06:32:48;;;;;;;;;;;;;;;;;;5089305;28;19958;-72
2023/12/07 06:35:14;;;;;;;;;;;;;;;;;;5091362;28;19915;-71
2023/12/07 06:37:41;;;;;;;;;;;;;;;;;;5092382;28;19920;-71
2023/12/07 06:40:09;;;;;;;;;;;;;;;;;;5090614;28;19959;-71
2023/12/07 06:42:35;;;;;;;;;;;;;;;;;;5089353;28;19951;-71
2023/12/07 06:45:02;;;;;;;;;;;;;;;;;;5090391;28;19950;-71
2023/12/07 06:47:27;;;;;;;;;;;;;;;;;;5073243;28;19912;-72
2023/12/07 06:49:53;;;;;;;;;;;;;;;;;;5071886;28;19969;-71
2023/12/07 06:52:19;;;;;;;;;;;;;;;;;;5088746;28;19912;-70
2023/12/07 06:54:45;;;;;;;;;;;;;;;;;;5090136;28;19912;-71
2023/12/07 06:57:11;;;;;;;;;;;;;;;;;;5079038;28;19917;-71
2023/12/07 06:59:37;;;;;;;;;;;;;;;;;;5079594;28;20015;-71
2023/12/07 07:02:03;;;;;;;;;;;;;;;;;;5061411;28;19942;-75
2023/12/07 07:04:32;;;;;;;;;;;;;;;;;;5076556;28;19916;-73
2023/12/07 07:06:58;;;;;;;;;;;;;;;;;;5070257;28;19928;-71
2023/12/07 07:09:24;;;;;;;;;;;;;;;;;;5088893;28;20039;-72
2023/12/07 07:11:51;;;;;;;;;;;;;;;;;;5069941;28;20327;-71
2023/12/07 07:14:17;;;;;;;;;;;;;;;;;;5071947;28;19912;-72
2023/12/07 07:16:43;;;;;;;;;;;;;;;;;;5070613;28;19919;-71
2023/12/07 07:19:09;;;;;;;;;;;;;;;;;;5088611;28;20054;-71
2023/12/07 07:21:34;;;;;;;;;;;;;;;;;;5089376;28;19966;-71
2023/12/07 07:24:00;;;;;;;;;;;;;;;;;;5070521;28;19935;-72
2023/12/07 07:26:26;;;;;;;;;;;;;;;;;;5089458;28;19916;-71
2023/12/07 07:28:52;;;;;;;;;;;;;;;;;;5068112;28;19924;-71
2023/12/07 07:31:18;;;;;;;;;;;;;;;;;;5066685;28;19943;-67
2023/12/07 07:33:45;;;;;;;;;;;;;;;;;;5077991;28;19944;-67
2023/12/07 07:36:17;;;;;;;;;;;;;;;;;;5089436;28;19919;-69
2023/12/07 07:38:48;;;;;;;;;;;;;;;;;;5088126;28;19995;-69
2023/12/07 07:41:13;;;;;;;;;;;;;;;;;;5089083;28;19908;-69
2023/12/07 07:43:39;;;;;;;;;;;;;;;;;;5088572;28;19927;-69
2023/12/07 07:46:05;;;;;;;;;;;;;;;;;;5088660;28;19909;-67
2023/12/07 07:48:31;;;;;;;;;;;;;;;;;;5090013;28;19951;-68
2023/12/07 07:50:58;;;;;;;;;;;;;;;;;;5089066;28;20465;-70
2023/12/07 07:53:24;;;;;;;;;;;;;;;;;;5090394;28;19912;-70
2023/12/07 07:55:50;;;;;;;;;;;;;;;;;;5090673;28;20279;-67
2023/12/07 07:58:16;;;;;;;;;;;;;;;;;;5089003;28;19912;-70
2023/12/07 08:00:42;;;;;;;;;;;;;;;;;;5091779;28;19912;-70
2023/12/07 08:03:08;;;;;;;;;;;;;;;;;;5087748;28;19908;-68
2023/12/07 08:05:34;;;;;;;;;;;;;;;;;;5091831;28;19916;-69
2023/12/07 08:08:00;;;;;;;;;;;;;;;;;;5093459;28;19908;-68
2023/12/07 08:10:26;;;;;;;;;;;;;;;;;;5092856;28;19958;-69
2023/12/07 08:12:52;;;;;;;;;;;;;;;;;;5092955;28;20420;-69
2023/12/07 08:15:18;;;;;;;;;;;;;;;;;;5092174;28;20281;-70
2023/12/07 08:17:44;;;;;;;;;;;;;;;;;;5093630;28;19944;-70
2023/12/07 08:20:10;;;;;;;;;;;;;;;;;;5086939;28;19916;-70
2023/12/07 08:22:36;;;;;;;;;;;;;;;;;;5068864;28;20363;-68
2023/12/07 08:25:02;;;;;;;;;;;;;;;;;;5070878;28;19952;-68
2023/12/07 08:27:28;;;;;;;;;;;;;;;;;;5072126;28;19913;-69
2023/12/07 08:29:54;;;;;;;;;;;;;;;;;;5093604;28;19924;-68
2023/12/07 08:32:20;;;;;;;;;;;;;;;;;;5091537;28;19916;-69
2023/12/07 08:34:46;;;;;;;;;;;;;;;;;;5089445;28;20349;-69
2023/12/07 08:37:12;;;;;;;;;;;;;;;;;;5075881;28;19912;-68
2023/12/07 08:39:38;;;;;;;;;;;;;;;;;;5075365;28;19916;-69
2023/12/07 08:42:05;;;;;;;;;;;;;;;;;;5093429;28;19944;-69
2023/12/07 08:44:36;;;;;;;;;;;;;;;;;;5093248;28;19916;-68
2023/12/07 08:47:12;;;;;;;;;;;;;;;;;;5088474;28;20069;-68
2023/12/07 08:49:39;;;;;;;;;;;;;;;;;;5092533;28;19916;-66
2023/12/07 08:52:06;;;;;;;;;;;;;;;;;;5054513;28;20012;-67
2023/12/07 08:54:32;;;;;;;;;;;;;;;;;;5084497;28;19912;-67
2023/12/07 08:56:58;;;;;;;;;;;;;;;;;;5092483;28;19908;-67
2023/12/07 08:59:24;;;;;;;;;;;;;;;;;;5092922;28;19912;-69
2023/12/07 09:01:50;;;;;;;;;;;;;;;;;;5085349;28;20416;-68
2023/12/07 09:04:16;;;;;;;;;;;;;;;;;;5084511;28;19924;-69
2023/12/07 09:06:42;;;;;;;;;;;;;;;;;;5070797;28;19909;-69
2023/12/07 09:09:08;;;;;;;;;;;;;;;;;;5081057;28;19931;-68
2023/12/07 09:11:34;;;;;;;;;;;;;;;;;;5068156;28;21056;-69
2023/12/07 09:14:00;;;;;;;;;;;;;;;;;;5085270;28;19912;-69
2023/12/07 09:16:26;;;;;;;;;;;;;;;;;;5085138;28;19931;-69
2023/12/07 09:18:53;;;;;;;;;;;;;;;;;;5084993;28;19916;-68
2023/12/07 09:21:19;;;;;;;;;;;;;;;;;;5066819;28;19965;-69
2023/12/07 09:23:45;;;;;;;;;;;;;;;;;;5086107;28;19916;-68
2023/12/07 09:26:10;;;;;;;;;;;;;;;;;;5085924;28;20288;-69
2023/12/07 09:28:38;;;;;;;;;;;;;;;;;;5085707;28;19959;-68
2023/12/07 09:31:04;;;;;;;;;;;;;;;;;;5086291;28;19923;-67
2023/12/07 09:33:30;;;;;;;;;;;;;;;;;;5069206;28;19908;-68
2023/12/07 09:35:56;;;;;;;;;;;;;;;;;;5088354;28;19912;-68
2023/12/07 09:38:22;;;;;;;;;;;;;;;;;;5090199;28;19908;-67
2023/12/07 09:40:48;;;;;;;;;;;;;;;;;;5090834;28;19964;-67
2023/12/07 09:43:14;;;;;;;;;;;;;;;;;;5069779;28;19908;-69
2023/12/07 09:45:40;;;;;;;;;;;;;;;;;;5074098;28;19953;-67
2023/12/07 09:48:05;;;;;;;;;;;;;;;;;;5073964;28;19912;-67
2023/12/07 09:50:31;;;;;;;;;;;;;;;;;;5090065;28;19916;-67
2023/12/07 09:52:57;;;;;;;;;;;;;;;;;;5090787;28;19913;-67
2023/12/07 09:55:24;;;;;;;;;;;;;;;;;;5090150;28;19923;-68
2023/12/07 09:57:51;;;;;;;;;;;;;;;;;;5091144;28;19908;-67
2023/12/07 10:00:17;;;;;;;;;;;;;;;;;;5073304;28;19919;-68
2023/12/07 10:02:44;;;;;;;;;;;;;;;;;;5093477;28;19936;-68
2023/12/07 10:05:13;;;;;;;;;;;;;;;;;;5073521;28;19920;-67
2023/12/07 10:07:39;;;;;;;;;;;;;;;;;;5091336;28;19953;-68
2023/12/07 10:10:05;;;;;;;;;;;;;;;;;;5091316;28;20340;-67
2023/12/07 10:12:31;;;;;;;;;;;;;;;;;;5091130;28;20319;-68
2023/12/07 10:14:57;;;;;;;;;;;;;;;;;;5089517;28;19919;-69
2023/12/07 10:17:23;;;;;;;;;;;;;;;;;;5085717;28;19919;-68
2023/12/07 10:19:49;;;;;;;;;;;;;;;;;;5090795;28;19912;-67
2023/12/07 10:22:15;;;;;;;;;;;;;;;;;;5091628;28;20253;-70
2023/12/07 10:24:42;;;;;;;;;;;;;;;;;;5090305;28;20383;-69
2023/12/07 10:27:08;;;;;;;;;;;;;;;;;;5072117;28;19948;-67
2023/12/07 10:29:34;;;;;;;;;;;;;;;;;;5090213;28;19927;-67
2023/12/07 10:32:00;;;;;;;;;;;;;;;;;;5090960;28;19912;-67
2023/12/07 10:34:26;;;;;;;;;;;;;;;;;;5073205;28;20261;-68
2023/12/07 10:36:53;;;;;;;;;;;;;;;;;;5089213;28;19912;-68
2023/12/07 10:39:20;;;;;;;;;;;;;;;;;;5091820;28;20264;-68
2023/12/07 10:41:46;;;;;;;;;;;;;;;;;;5091766;28;19908;-66
2023/12/07 10:44:11;;;;;;;;;;;;;;;;;;5092751;28;19912;-69
2023/12/07 10:46:38;;;;;;;;;;;;;;;;;;5075089;28;19909;-66
2023/12/07 10:49:04;;;;;;;;;;;;;;;;;;5091704;28;20476;-67
2023/12/07 10:51:30;;;;;;;;;;;;;;;;;;5090942;28;20007;-67
2023/12/07 10:53:56;;;;;;;;;;;;;;;;;;5072918;28;19946;-67
2023/12/07 10:56:22;;;;;;;;;;;;;;;;;;5083415;28;19924;-69
2023/12/07 10:58:48;;;;;;;;;;;;;;;;;;5071929;28;19920;-67
2023/12/07 11:01:14;;;;;;;;;;;;;;;;;;5073994;28;19912;-66
2023/12/07 11:03:40;;;;;;;;;;;;;;;;;;5077452;28;19981;-67
2023/12/07 11:06:06;;;;;;;;;;;;;;;;;;5084842;28;19916;-67
2023/12/07 11:08:32;;;;;;;;;;;;;;;;;;5078000;28;19924;-68
2023/12/07 11:10:59;;;;;;;;;;;;;;;;;;5075780;28;20287;-67
2023/12/07 11:13:25;;;;;;;;;;;;;;;;;;5065650;28;19923;-69
2023/12/07 11:15:51;;;;;;;;;;;;;;;;;;5054940;28;19912;-68
2023/12/07 11:18:17;;;;;;;;;;;;;;;;;;5080694;28;20407;-68
2023/12/07 11:20:49;;;;;;;;;;;;;;;;;;5071476;28;20303;-68
2023/12/07 11:23:15;;;;;;;;;;;;;;;;;;5070914;28;20259;-68
2023/12/07 11:25:41;;;;;;;;;;;;;;;;;;5088618;28;19908;-68
2023/12/07 11:28:09;;;;;;;;;;;;;;;;;;5068608;28;19938;-69
2023/12/07 11:30:34;;;;;;;;;;;;;;;;;;5086927;28;19934;-68
2023/12/07 11:33:00;;;;;;;;;;;;;;;;;;5087684;28;19908;-68
2023/12/07 11:35:26;;;;;;;;;;;;;;;;;;5087710;28;20728;-68
2023/12/07 11:37:53;;;;;;;;;;;;;;;;;;5087229;28;19973;-68
2023/12/07 11:40:19;;;;;;;;;;;;;;;;;;5073507;28;20214;-68
2023/12/07 11:42:45;;;;;;;;;;;;;;;;;;5074551;28;19914;-67
2023/12/07 11:45:11;;;;;;;;;;;;;;;;;;5092353;28;20348;-68
2023/12/07 11:47:37;;;;;;;;;;;;;;;;;;5093577;28;19916;-68
2023/12/07 11:50:03;;;;;;;;;;;;;;;;;;5094001;28;19923;-68
2023/12/07 11:52:28;;;;;;;;;;;;;;;;;;5076120;28;19911;-69
2023/12/07 11:54:57;;;;;;;;;;;;;;;;;;5085540;28;20293;-68
2023/12/07 11:57:23;;;;;;;;;;;;;;;;;;5070357;28;20007;-70
2023/12/07 11:59:49;;;;;;;;;;;;;;;;;;5072630;28;19991;-68
2023/12/07 12:02:15;;;;;;;;;;;;;;;;;;5071963;28;19915;-67
2023/12/07 12:04:41;;;;;;;;;;;;;;;;;;5085771;28;19916;-68
2023/12/07 12:07:07;;;;;;;;;;;;;;;;;;5090680;28;20404;-67
2023/12/07 12:09:34;;;;;;;;;;;;;;;;;;5094474;28;20004;-66
2023/12/07 12:12:00;;;;;;;;;;;;;;;;;;5093904;28;19912;-66
2023/12/07 12:14:26;;;;;;;;;;;;;;;;;;5092783;28;20287;-66
2023/12/07 12:16:52;;;;;;;;;;;;;;;;;;5095468;28;19919;-66
2023/12/07 12:19:17;;;;;;;;;;;;;;;;;;5094358;28;20375;-66
2023/12/07 12:21:43;;;;;;;;;;;;;;;;;;5075120;28;20400;-67
2023/12/07 12:24:09;;;;;;;;;;;;;;;;;;5075795;28;19957;-67
2023/12/07 12:26:36;;;;;;;;;;;;;;;;;;5094319;28;19915;-68
2023/12/07 12:29:02;;;;;;;;;;;;;;;;;;5094608;28;19924;-67
2023/12/07 12:31:29;;;;;;;;;;;;;;;;;;5095231;28;19923;-70
2023/12/07 12:33:54;;;;;;;;;;;;;;;;;;5094460;28;19908;-70
2023/12/07 12:36:23;;;;;;;;;;;;;;;;;;5094687;28;19953;-69
2023/12/07 12:38:49;;;;;;;;;;;;;;;;;;5095741;28;19908;-70
2023/12/07 12:41:14;;;;;;;;;;;;;;;;;;5091922;28;20386;-69
2023/12/07 12:43:40;;;;;;;;;;;;;;;;;;5092761;28;20474;-69
2023/12/07 12:46:06;;;;;;;;;;;;;;;;;;5093115;28;20431;-69
2023/12/07 12:48:32;;;;;;;;;;;;;;;;;;5093364;28;19919;-70
2023/12/07 12:50:59;;;;;;;;;;;;;;;;;;5091526;28;19916;-69
2023/12/07 12:53:25;;;;;;;;;;;;;;;;;;5092291;28;19908;-70
2023/12/07 12:55:51;;;;;;;;;;;;;;;;;;5092647;28;20032;-69
2023/12/07 12:58:17;;;;;;;;;;;;;;;;;;5094329;28;20356;-69
2023/12/07 13:00:44;;;;;;;;;;;;;;;;;;5094686;28;20257;-69
2023/12/07 13:03:12;;;;;;;;;;;;;;;;;;5094763;28;19956;-69
2023/12/07 13:05:38;;;;;;;;;;;;;;;;;;5095329;28;19994;-68
2023/12/07 13:08:04;;;;;;;;;;;;;;;;;;5076364;28;19947;-69
2023/12/07 13:10:31;;;;;;;;;;;;;;;;;;5093125;28;19995;-70
2023/12/07 13:12:57;;;;;;;;;;;;;;;;;;5075015;28;19909;-68
2023/12/07 13:15:25;;;;;;;;;;;;;;;;;;5075271;28;19915;-70
2023/12/07 13:17:51;;;;;;;;;;;;;;;;;;5094401;28;19908;-70
2023/12/07 13:20:16;;;;;;;;;;;;;;;;;;5076575;28;19933;-70
2023/12/07 13:22:45;;;;;;;;;;;;;;;;;;5094390;28;20001;-70
2023/12/07 13:25:12;;;;;;;;;;;;;;;;;;5095113;28;19912;-69
2023/12/07 13:27:38;;;;;;;;;;;;;;;;;;5095226;28;20364;-69
2023/12/07 13:30:06;;;;;;;;;;;;;;;;;;5094857;28;19916;-69
2023/12/07 13:32:32;;;;;;;;;;;;;;;;;;5095095;28;19965;-69
2023/12/07 13:34:58;;;;;;;;;;;;;;;;;;5095074;28;20322;-69
2023/12/07 13:37:24;;;;;;;;;;;;;;;;;;5094685;28;19916;-69
2023/12/07 13:39:55;;;;;;;;;;;;;;;;;;5094978;28;19953;-69
2023/12/07 13:42:21;;;;;;;;;;;;;;;;;;5095149;28;19990;-69
2023/12/07 13:44:47;;;;;;;;;;;;;;;;;;5094554;28;20011;-68
2023/12/07 13:47:14;;;;;;;;;;;;;;;;;;5094513;28;19908;-70
2023/12/07 13:49:40;;;;;;;;;;;;;;;;;;5092856;28;19916;-70
2023/12/07 13:52:06;;;;;;;;;;;;;;;;;;5092803;28;19919;-69
2023/12/07 13:54:32;;;;;;;;;;;;;;;;;;5094083;28;20527;-70
2023/12/07 13:56:58;;;;;;;;;;;;;;;;;;5094028;28;20390;-70
2023/12/07 13:59:25;;;;;;;;;;;;;;;;;;5093537;28;19908;-70
2023/12/07 14:01:51;;;;;;;;;;;;;;;;;;5093891;28;19908;-71
2023/12/07 14:04:17;;;;;;;;;;;;;;;;;;5092814;28;19908;-69
2023/12/07 14:06:43;;;;;;;;;;;;;;;;;;5092241;28;19909;-68
2023/12/07 14:09:10;;;;;;;;;;;;;;;;;;5092522;28;19915;-70
2023/12/07 14:11:37;;;;;;;;;;;;;;;;;;5092604;28;19993;-69
2023/12/07 14:14:03;;;;;;;;;;;;;;;;;;5092830;28;19912;-71
2023/12/07 14:16:29;;;;;;;;;;;;;;;;;;5093500;28;19939;-69
2023/12/07 14:18:55;;;;;;;;;;;;;;;;;;5073515;28;19951;-68
2023/12/07 14:21:21;;;;;;;;;;;;;;;;;;5092144;28;19908;-69
2023/12/07 14:23:47;;;;;;;;;;;;;;;;;;5092346;28;20368;-69
2023/12/07 14:26:13;;;;;;;;;;;;;;;;;;5091954;28;19961;-71
2023/12/07 14:28:39;;;;;;;;;;;;;;;;;;5090090;28;20343;-71
2023/12/07 14:31:06;;;;;;;;;;;;;;;;;;5091972;28;20011;-71
2023/12/07 14:33:35;;;;;;;;;;;;;;;;;;5090907;28;20202;-72
2023/12/07 14:36:00;;;;;;;;;;;;;;;;;;5091225;28;19938;-70
2023/12/07 14:38:26;;;;;;;;;;;;;;;;;;5091556;28;19904;-71
2023/12/07 14:40:54;;;;;;;;;;;;;;;;;;5093193;28;19916;-72
2023/12/07 14:43:21;;;;;;;;;;;;;;;;;;5093468;28;19908;-72
2023/12/07 14:45:47;;;;;;;;;;;;;;;;;;5075233;28;20002;-72
2023/12/07 14:48:14;;;;;;;;;;;;;;;;;;5089276;28;19912;-71
2023/12/07 14:50:40;;;;;;;;;;;;;;;;;;5089474;28;19919;-72
2023/12/07 14:53:06;;;;;;;;;;;;;;;;;;5088859;28;20259;-72
2023/12/07 14:55:32;;;;;;;;;;;;;;;;;;5087929;28;19999;-72
2023/12/07 14:57:58;;;;;;;;;;;;;;;;;;5087093;28;19935;-70
2023/12/07 15:00:25;;;;;;;;;;;;;;;;;;5092667;28;19908;-71
2023/12/07 15:02:52;;;;;;;;;;;;;;;;;;5093222;28;19908;-71
2023/12/07 15:05:18;;;;;;;;;;;;;;;;;;5093811;28;19962;-71
2023/12/07 15:07:43;;;;;;;;;;;;;;;;;;5093782;28;19959;-71
2023/12/07 15:10:09;;;;;;;;;;;;;;;;;;5093165;28;19916;-72
2023/12/07 15:12:35;;;;;;;;;;;;;;;;;;5093685;28;19908;-71
2023/12/07 15:15:02;;;;;;;;;;;;;;;;;;5095835;28;20311;-71
2023/12/07 15:17:28;;;;;;;;;;;;;;;;;;5097416;28;19908;-71
2023/12/07 15:19:54;;;;;;;;;;;;;;;;;;5097735;28;19915;-71
2023/12/07 15:22:20;;;;;;;;;;;;;;;;;;5097256;28;20014;-71
2023/12/07 15:24:46;;;;;;;;;;;;;;;;;;5097612;28;19908;-71
2023/12/07 15:27:12;;;;;;;;;;;;;;;;;;5097580;28;19919;-70
2023/12/07 15:29:38;;;;;;;;;;;;;;;;;;5096981;28;19946;-71
2023/12/07 15:32:04;;;;;;;;;;;;;;;;;;5097439;28;19961;-71
2023/12/07 15:34:30;;;;;;;;;;;;;;;;;;5097399;28;19912;-70
2023/12/07 15:36:56;;;;;;;;;;;;;;;;;;5079058;28;19963;-70
2023/12/07 15:39:22;;;;;;;;;;;;;;;;;;5079055;28;19909;-72
2023/12/07 15:41:48;;;;;;;;;;;;;;;;;;5097274;28;19933;-73
2023/12/07 15:44:14;;;;;;;;;;;;;;;;;;5096879;28;19908;-71
2023/12/07 15:46:40;;;;;;;;;;;;;;;;;;5097219;28;19950;-70
2023/12/07 15:49:05;;;;;;;;;;;;;;;;;;5097106;28;19908;-70
2023/12/07 15:51:31;;;;;;;;;;;;;;;;;;5096646;28;20268;-71
2023/12/07 15:53:57;;;;;;;;;;;;;;;;;;5078872;28;20307;-70
2023/12/07 15:56:25;;;;;;;;;;;;;;;;;;5097067;28;19947;-71
2023/12/07 15:58:51;;;;;;;;;;;;;;;;;;5078624;28;19988;-71
2023/12/07 16:01:17;;;;;;;;;;;;;;;;;;5078737;28;19912;-70
2023/12/07 16:03:43;;;;;;;;;;;;;;;;;;5096929;28;19919;-70
2023/12/07 16:06:09;;;;;;;;;;;;;;;;;;5096466;28;19908;-71
2023/12/07 16:08:35;;;;;;;;;;;;;;;;;;5096833;28;19944;-71
2023/12/07 16:11:01;;;;;;;;;;;;;;;;;;5096744;28;19916;-71
2023/12/07 16:13:27;;;;;;;;;;;;;;;;;;5096343;28;19912;-71
2023/12/07 16:15:52;;;;;;;;;;;;;;;;;;5096717;28;20319;-71
2023/12/07 16:18:19;;;;;;;;;;;;;;;;;;5096629;28;19931;-71
2023/12/07 16:20:45;;;;;;;;;;;;;;;;;;5096101;28;20049;-71
2023/12/07 16:23:11;;;;;;;;;;;;;;;;;;5096492;28;19961;-71
2023/12/07 16:25:37;;;;;;;;;;;;;;;;;;5095144;28;19961;-71
2023/12/07 16:28:03;;;;;;;;;;;;;;;;;;5074427;28;19931;-72
2023/12/07 16:30:29;;;;;;;;;;;;;;;;;;5075977;28;19912;-71
2023/12/07 16:32:55;;;;;;;;;;;;;;;;;;5075784;28;19913;-71
2023/12/07 16:35:20;;;;;;;;;;;;;;;;;;5073183;28;19909;-72
2023/12/07 16:37:46;;;;;;;;;;;;;;;;;;5075379;28;19930;-71